sensor_id;sensor_type;location;lat;lon;timestamp;temperature;humidity
17571;DHT22;8903;52.220;20.978;2022-07-24T00:01:52;22.20;99.90
17571;DHT22;8903;52.220;20.978;2022-07-24T00:04:18;22.20;99.90
17571;DHT22;8903;52.220;20.978;2022-07-24T00:06:45;22.20;99.90
17571;DHT22;8903;52.220;20.978;2022-07-24T00:09:12;22.20;99.90
17571;DHT22;8903;52.220;20.978;2022-07-24T00:11:38;22.20;99.90
17571;DHT22;8903;52.220;20.978;2022-07-24T00:14:05;22.20;99.90
17571;DHT22;8903;52.220;20.978;2022-07-24T00:16:33;22.20;99.90
17571;DHT22;8903;52.220;20.978;2022-07-24T00:19:00;22.20;99.90
17571;DHT22;8903;52.220;20.978;2022-07-24T00:21:27;22.20;99.90
17571;DHT22;8903;52.220;20.978;2022-07-24T00:23:53;22.10;99.90
17571;DHT22;8903;52.220;20.978;2022-07-24T00:26:20;22.20;99.90
17571;DHT22;8903;52.220;20.978;2022-07-24T00:28:47;22.20;99.90
17571;DHT22;8903;52.220;20.978;2022-07-24T00:31:15;22.20;99.90
17571;DHT22;8903;52.220;20.978;2022-07-24T00:33:43;22.20;99.90
17571;DHT22;8903;52.220;20.978;2022-07-24T00:36:10;22.20;99.90
17571;DHT22;8903;52.220;20.978;2022-07-24T00:38:36;22.20;99.90
17571;DHT22;8903;52.220;20.978;2022-07-24T00:41:03;22.10;99.90
17571;DHT22;8903;52.220;20.978;2022-07-24T00:43:30;22.10;99.90
17571;DHT22;8903;52.220;20.978;2022-07-24T00:45:57;22.00;99.90
17571;DHT22;8903;52.220;20.978;2022-07-24T00:48:24;22.10;99.90
17571;DHT22;8903;52.220;20.978;2022-07-24T00:50:52;21.90;99.90
17571;DHT22;8903;52.220;20.978;2022-07-24T00:53:19;21.90;99.90
17571;DHT22;8903;52.220;20.978;2022-07-24T00:55:46;21.90;99.90
17571;DHT22;8903;52.220;20.978;2022-07-24T00:58:12;21.70;99.90
17571;DHT22;8903;52.220;20.978;2022-07-24T01:00:39;21.80;99.90
17571;DHT22;8903;52.220;20.978;2022-07-24T01:03:06;21.70;99.90
17571;DHT22;8903;52.220;20.978;2022-07-24T01:05:32;21.70;99.90
17571;DHT22;8903;52.220;20.978;2022-07-24T01:08:01;21.50;99.90
17571;DHT22;8903;52.220;20.978;2022-07-24T01:10:28;21.40;99.90
17571;DHT22;8903;52.220;20.978;2022-07-24T01:12:54;21.40;99.90
17571;DHT22;8903;52.220;20.978;2022-07-24T01:15:21;21.40;99.90
17571;DHT22;8903;52.220;20.978;2022-07-24T01:17:49;21.40;99.90
17571;DHT22;8903;52.220;20.978;2022-07-24T01:20:16;21.40;99.90
17571;DHT22;8903;52.220;20.978;2022-07-24T01:22:44;21.50;99.90
17571;DHT22;8903;52.220;20.978;2022-07-24T01:25:11;21.60;99.90
17571;DHT22;8903;52.220;20.978;2022-07-24T01:27:38;21.50;99.90
17571;DHT22;8903;52.220;20.978;2022-07-24T01:30:05;21.30;99.90
17571;DHT22;8903;52.220;20.978;2022-07-24T01:32:32;21.20;99.90
17571;DHT22;8903;52.220;20.978;2022-07-24T01:34:58;21.00;99.90
17571;DHT22;8903;52.220;20.978;2022-07-24T01:37:25;20.90;99.90
17571;DHT22;8903;52.220;20.978;2022-07-24T01:39:53;20.50;99.90
17571;DHT22;8903;52.220;20.978;2022-07-24T01:42:20;20.20;99.90
17571;DHT22;8903;52.220;20.978;2022-07-24T01:44:49;19.70;99.90
17571;DHT22;8903;52.220;20.978;2022-07-24T01:47:16;19.50;99.90
17571;DHT22;8903;52.220;20.978;2022-07-24T01:49:42;19.20;99.90
17571;DHT22;8903;52.220;20.978;2022-07-24T01:52:09;19.10;99.90
17571;DHT22;8903;52.220;20.978;2022-07-24T01:54:36;19.00;99.90
17571;DHT22;8903;52.220;20.978;2022-07-24T01:57:04;18.90;99.90
17571;DHT22;8903;52.220;20.978;2022-07-24T01:59:31;18.80;99.90
17571;DHT22;8903;52.220;20.978;2022-07-24T02:01:57;18.80;99.90
17571;DHT22;8903;52.220;20.978;2022-07-24T02:04:24;18.70;99.90
17571;DHT22;8903;52.220;20.978;2022-07-24T02:06:51;18.70;99.90
17571;DHT22;8903;52.220;20.978;2022-07-24T02:09:17;18.60;99.90
17571;DHT22;8903;52.220;20.978;2022-07-24T02:11:44;18.40;99.90
17571;DHT22;8903;52.220;20.978;2022-07-24T02:14:12;18.40;99.90
17571;DHT22;8903;52.220;20.978;2022-07-24T02:16:39;18.20;99.90
17571;DHT22;8903;52.220;20.978;2022-07-24T02:19:06;18.30;99.90
17571;DHT22;8903;52.220;20.978;2022-07-24T02:21:33;18.30;99.90
17571;DHT22;8903;52.220;20.978;2022-07-24T02:24:00;18.10;99.90
17571;DHT22;8903;52.220;20.978;2022-07-24T02:26:26;17.80;99.90
17571;DHT22;8903;52.220;20.978;2022-07-24T02:28:53;17.50;99.90
17571;DHT22;8903;52.220;20.978;2022-07-24T02:31:21;17.60;99.90
17571;DHT22;8903;52.220;20.978;2022-07-24T02:33:48;17.50;99.90
17571;DHT22;8903;52.220;20.978;2022-07-24T02:36:15;17.50;99.90
17571;DHT22;8903;52.220;20.978;2022-07-24T02:38:41;17.50;99.90
17571;DHT22;8903;52.220;20.978;2022-07-24T02:41:08;17.40;99.90
17571;DHT22;8903;52.220;20.978;2022-07-24T02:43:35;17.40;99.90
17571;DHT22;8903;52.220;20.978;2022-07-24T02:46:01;17.30;99.90
17571;DHT22;8903;52.220;20.978;2022-07-24T02:48:29;17.40;99.90
17571;DHT22;8903;52.220;20.978;2022-07-24T02:50:56;17.40;99.90
17571;DHT22;8903;52.220;20.978;2022-07-24T02:53:24;17.40;99.90
17571;DHT22;8903;52.220;20.978;2022-07-24T02:55:50;17.40;99.90
17571;DHT22;8903;52.220;20.978;2022-07-24T02:58:17;17.50;99.90
17571;DHT22;8903;52.220;20.978;2022-07-24T03:00:44;17.50;99.90
17571;DHT22;8903;52.220;20.978;2022-07-24T03:03:10;17.50;99.90
17571;DHT22;8903;52.220;20.978;2022-07-24T03:05:39;17.50;99.90
17571;DHT22;8903;52.220;20.978;2022-07-24T03:08:05;17.50;99.90
17571;DHT22;8903;52.220;20.978;2022-07-24T03:10:32;17.40;99.90
17571;DHT22;8903;52.220;20.978;2022-07-24T03:12:59;17.40;99.90
17571;DHT22;8903;52.220;20.978;2022-07-24T03:15:26;17.40;99.90
17571;DHT22;8903;52.220;20.978;2022-07-24T03:17:55;17.50;99.90
17571;DHT22;8903;52.220;20.978;2022-07-24T03:20:23;17.40;99.90
17571;DHT22;8903;52.220;20.978;2022-07-24T03:22:51;17.50;99.90
17571;DHT22;8903;52.220;20.978;2022-07-24T03:25:18;17.50;99.90
17571;DHT22;8903;52.220;20.978;2022-07-24T03:27:45;17.40;99.90
17571;DHT22;8903;52.220;20.978;2022-07-24T03:30:11;17.50;99.90
17571;DHT22;8903;52.220;20.978;2022-07-24T03:32:38;17.30;99.90
17571;DHT22;8903;52.220;20.978;2022-07-24T03:35:05;17.30;99.90
17571;DHT22;8903;52.220;20.978;2022-07-24T03:37:32;17.30;99.90
17571;DHT22;8903;52.220;20.978;2022-07-24T03:40:00;17.20;99.90
17571;DHT22;8903;52.220;20.978;2022-07-24T03:42:27;17.20;99.90
17571;DHT22;8903;52.220;20.978;2022-07-24T03:44:55;17.10;99.90
17571;DHT22;8903;52.220;20.978;2022-07-24T03:47:22;17.00;99.90
17571;DHT22;8903;52.220;20.978;2022-07-24T03:49:48;17.00;99.90
17571;DHT22;8903;52.220;20.978;2022-07-24T03:52:15;17.00;99.90
17571;DHT22;8903;52.220;20.978;2022-07-24T03:54:42;16.90;99.90
17571;DHT22;8903;52.220;20.978;2022-07-24T03:57:10;17.00;99.90
17571;DHT22;8903;52.220;20.978;2022-07-24T03:59:36;17.00;99.90
17571;DHT22;8903;52.220;20.978;2022-07-24T04:02:03;17.10;99.90
17571;DHT22;8903;52.220;20.978;2022-07-24T04:04:30;17.10;99.90
17571;DHT22;8903;52.220;20.978;2022-07-24T04:06:57;17.10;99.90
17571;DHT22;8903;52.220;20.978;2022-07-24T04:09:24;17.20;99.90
17571;DHT22;8903;52.220;20.978;2022-07-24T04:11:51;17.30;99.90
17571;DHT22;8903;52.220;20.978;2022-07-24T04:14:19;17.30;99.90
17571;DHT22;8903;52.220;20.978;2022-07-24T04:16:47;17.30;99.90
17571;DHT22;8903;52.220;20.978;2022-07-24T04:19:13;17.40;99.90
17571;DHT22;8903;52.220;20.978;2022-07-24T04:21:40;17.30;99.90
17571;DHT22;8903;52.220;20.978;2022-07-24T04:24:07;17.40;99.90
17571;DHT22;8903;52.220;20.978;2022-07-24T04:26:34;17.50;99.90
17571;DHT22;8903;52.220;20.978;2022-07-24T04:29:00;17.50;99.90
17571;DHT22;8903;52.220;20.978;2022-07-24T04:31:28;17.50;99.90
17571;DHT22;8903;52.220;20.978;2022-07-24T04:33:55;17.60;99.90
17571;DHT22;8903;52.220;20.978;2022-07-24T04:36:22;17.60;99.90
17571;DHT22;8903;52.220;20.978;2022-07-24T04:38:50;17.60;99.90
17571;DHT22;8903;52.220;20.978;2022-07-24T04:41:17;17.60;99.90
17571;DHT22;8903;52.220;20.978;2022-07-24T04:43:44;17.60;99.90
17571;DHT22;8903;52.220;20.978;2022-07-24T04:46:11;17.70;99.90
17571;DHT22;8903;52.220;20.978;2022-07-24T04:48:39;17.70;99.90
17571;DHT22;8903;52.220;20.978;2022-07-24T04:51:06;17.70;99.90
17571;DHT22;8903;52.220;20.978;2022-07-24T04:53:33;17.70;99.90
17571;DHT22;8903;52.220;20.978;2022-07-24T04:56:00;17.70;99.90
17571;DHT22;8903;52.220;20.978;2022-07-24T04:58:26;17.70;99.90
17571;DHT22;8903;52.220;20.978;2022-07-24T05:00:53;17.70;99.90
17571;DHT22;8903;52.220;20.978;2022-07-24T05:03:20;17.80;99.90
17571;DHT22;8903;52.220;20.978;2022-07-24T05:05:48;17.80;99.90
17571;DHT22;8903;52.220;20.978;2022-07-24T05:08:15;17.80;99.90
17571;DHT22;8903;52.220;20.978;2022-07-24T05:10:42;17.90;99.90
17571;DHT22;8903;52.220;20.978;2022-07-24T05:13:08;17.90;99.90
17571;DHT22;8903;52.220;20.978;2022-07-24T05:15:35;18.00;99.90
17571;DHT22;8903;52.220;20.978;2022-07-24T05:18:02;18.00;99.90
17571;DHT22;8903;52.220;20.978;2022-07-24T05:20:28;18.00;99.90
17571;DHT22;8903;52.220;20.978;2022-07-24T05:22:57;18.00;99.90
17571;DHT22;8903;52.220;20.978;2022-07-24T05:25:24;18.00;99.90
17571;DHT22;8903;52.220;20.978;2022-07-24T05:27:50;18.10;99.90
17571;DHT22;8903;52.220;20.978;2022-07-24T05:30:17;18.10;99.90
17571;DHT22;8903;52.220;20.978;2022-07-24T05:32:44;18.10;99.90
17571;DHT22;8903;52.220;20.978;2022-07-24T05:35:11;18.10;99.90
17571;DHT22;8903;52.220;20.978;2022-07-24T05:37:37;18.10;99.90
17571;DHT22;8903;52.220;20.978;2022-07-24T05:40:06;18.10;99.90
17571;DHT22;8903;52.220;20.978;2022-07-24T05:42:33;18.10;99.90
17571;DHT22;8903;52.220;20.978;2022-07-24T05:45:00;18.10;99.90
17571;DHT22;8903;52.220;20.978;2022-07-24T05:47:27;18.10;99.90
17571;DHT22;8903;52.220;20.978;2022-07-24T05:49:53;18.10;99.90
17571;DHT22;8903;52.220;20.978;2022-07-24T05:52:20;18.10;99.90
17571;DHT22;8903;52.220;20.978;2022-07-24T05:54:47;18.10;99.90
17571;DHT22;8903;52.220;20.978;2022-07-24T05:57:15;18.10;99.90
17571;DHT22;8903;52.220;20.978;2022-07-24T05:59:42;18.10;99.90
17571;DHT22;8903;52.220;20.978;2022-07-24T06:02:08;18.10;99.90
17571;DHT22;8903;52.220;20.978;2022-07-24T06:04:35;18.20;99.90
17571;DHT22;8903;52.220;20.978;2022-07-24T06:07:07;18.20;99.90
17571;DHT22;8903;52.220;20.978;2022-07-24T06:09:34;18.30;99.90
17571;DHT22;8903;52.220;20.978;2022-07-24T06:12:01;18.30;99.90
17571;DHT22;8903;52.220;20.978;2022-07-24T06:14:29;18.30;99.90
17571;DHT22;8903;52.220;20.978;2022-07-24T06:16:56;18.30;99.90
17571;DHT22;8903;52.220;20.978;2022-07-24T06:19:23;18.10;99.90
17571;DHT22;8903;52.220;20.978;2022-07-24T06:21:50;18.00;99.90
17571;DHT22;8903;52.220;20.978;2022-07-24T06:24:17;18.10;99.90
17571;DHT22;8903;52.220;20.978;2022-07-24T06:26:43;18.20;99.90
17571;DHT22;8903;52.220;20.978;2022-07-24T06:29:10;18.30;99.90
17571;DHT22;8903;52.220;20.978;2022-07-24T06:31:38;18.40;99.90
17571;DHT22;8903;52.220;20.978;2022-07-24T06:34:05;18.50;99.90
17571;DHT22;8903;52.220;20.978;2022-07-24T06:36:32;18.50;99.90
17571;DHT22;8903;52.220;20.978;2022-07-24T06:38:59;18.40;99.90
17571;DHT22;8903;52.220;20.978;2022-07-24T06:41:25;18.20;99.90
17571;DHT22;8903;52.220;20.978;2022-07-24T06:43:52;18.10;99.90
17571;DHT22;8903;52.220;20.978;2022-07-24T06:46:19;18.10;99.90
17571;DHT22;8903;52.220;20.978;2022-07-24T06:48:47;18.20;99.90
17571;DHT22;8903;52.220;20.978;2022-07-24T06:51:14;18.50;99.90
17571;DHT22;8903;52.220;20.978;2022-07-24T06:53:42;18.60;99.90
17571;DHT22;8903;52.220;20.978;2022-07-24T06:56:12;18.60;99.90
17571;DHT22;8903;52.220;20.978;2022-07-24T06:58:38;18.60;99.90
17571;DHT22;8903;52.220;20.978;2022-07-24T07:01:05;18.50;99.90
17571;DHT22;8903;52.220;20.978;2022-07-24T07:03:32;18.50;99.90
17571;DHT22;8903;52.220;20.978;2022-07-24T07:06:00;18.50;99.90
17571;DHT22;8903;52.220;20.978;2022-07-24T07:08:27;18.40;99.90
17571;DHT22;8903;52.220;20.978;2022-07-24T07:10:53;18.50;99.90
17571;DHT22;8903;52.220;20.978;2022-07-24T07:13:20;18.40;99.90
17571;DHT22;8903;52.220;20.978;2022-07-24T07:15:47;18.40;99.90
17571;DHT22;8903;52.220;20.978;2022-07-24T07:18:13;18.50;99.90
17571;DHT22;8903;52.220;20.978;2022-07-24T07:20:40;18.50;99.90
17571;DHT22;8903;52.220;20.978;2022-07-24T07:23:08;18.50;99.90
17571;DHT22;8903;52.220;20.978;2022-07-24T07:25:35;18.50;99.90
17571;DHT22;8903;52.220;20.978;2022-07-24T07:28:02;18.50;99.90
17571;DHT22;8903;52.220;20.978;2022-07-24T07:30:28;18.60;99.90
17571;DHT22;8903;52.220;20.978;2022-07-24T07:32:55;18.70;99.90
17571;DHT22;8903;52.220;20.978;2022-07-24T07:35:22;18.80;99.90
17571;DHT22;8903;52.220;20.978;2022-07-24T07:37:49;18.90;99.90
17571;DHT22;8903;52.220;20.978;2022-07-24T07:40:17;19.00;99.90
17571;DHT22;8903;52.220;20.978;2022-07-24T07:42:44;19.10;99.90
17571;DHT22;8903;52.220;20.978;2022-07-24T07:45:10;19.30;99.90
17571;DHT22;8903;52.220;20.978;2022-07-24T07:47:37;19.40;99.90
17571;DHT22;8903;52.220;20.978;2022-07-24T07:50:04;19.30;99.90
17571;DHT22;8903;52.220;20.978;2022-07-24T07:52:31;19.40;99.90
17571;DHT22;8903;52.220;20.978;2022-07-24T07:54:57;19.50;99.90
17571;DHT22;8903;52.220;20.978;2022-07-24T07:57:25;19.50;99.90
17571;DHT22;8903;52.220;20.978;2022-07-24T07:59:52;19.70;99.90
17571;DHT22;8903;52.220;20.978;2022-07-24T08:02:19;19.80;99.90
17571;DHT22;8903;52.220;20.978;2022-07-24T08:04:45;19.80;99.90
17571;DHT22;8903;52.220;20.978;2022-07-24T08:07:12;19.70;99.90
17571;DHT22;8903;52.220;20.978;2022-07-24T08:09:39;19.80;99.90
17571;DHT22;8903;52.220;20.978;2022-07-24T08:12:06;19.90;99.90
17571;DHT22;8903;52.220;20.978;2022-07-24T08:14:34;20.00;99.90
17571;DHT22;8903;52.220;20.978;2022-07-24T08:17:00;20.00;99.90
17571;DHT22;8903;52.220;20.978;2022-07-24T08:19:27;20.00;99.90
17571;DHT22;8903;52.220;20.978;2022-07-24T08:21:54;20.00;99.90
17571;DHT22;8903;52.220;20.978;2022-07-24T08:24:20;19.90;99.90
17571;DHT22;8903;52.220;20.978;2022-07-24T08:26:47;19.80;99.90
17571;DHT22;8903;52.220;20.978;2022-07-24T08:29:14;19.70;99.90
17571;DHT22;8903;52.220;20.978;2022-07-24T08:31:42;19.70;99.90
17571;DHT22;8903;52.220;20.978;2022-07-24T08:34:09;19.60;99.90
17571;DHT22;8903;52.220;20.978;2022-07-24T08:36:36;19.90;99.90
17571;DHT22;8903;52.220;20.978;2022-07-24T08:39:04;20.00;99.90
17571;DHT22;8903;52.220;20.978;2022-07-24T08:41:31;20.10;99.90
17571;DHT22;8903;52.220;20.978;2022-07-24T08:44:01;20.10;99.90
17571;DHT22;8903;52.220;20.978;2022-07-24T08:46:28;20.10;99.90
17571;DHT22;8903;52.220;20.978;2022-07-24T08:48:56;20.20;99.90
17571;DHT22;8903;52.220;20.978;2022-07-24T08:51:23;20.20;99.90
17571;DHT22;8903;52.220;20.978;2022-07-24T08:53:55;20.30;99.90
17571;DHT22;8903;52.220;20.978;2022-07-24T08:56:22;20.20;99.90
17571;DHT22;8903;52.220;20.978;2022-07-24T08:58:49;20.00;99.90
17571;DHT22;8903;52.220;20.978;2022-07-24T09:01:16;19.90;99.90
17571;DHT22;8903;52.220;20.978;2022-07-24T09:03:43;20.00;99.90
17571;DHT22;8903;52.220;20.978;2022-07-24T09:06:12;20.00;99.90
17571;DHT22;8903;52.220;20.978;2022-07-24T09:08:39;20.20;99.90
17571;DHT22;8903;52.220;20.978;2022-07-24T09:11:06;20.30;99.90
17571;DHT22;8903;52.220;20.978;2022-07-24T09:13:34;20.30;99.90
17571;DHT22;8903;52.220;20.978;2022-07-24T09:16:19;20.30;99.90
17571;DHT22;8903;52.220;20.978;2022-07-24T09:18:49;20.30;99.90
17571;DHT22;8903;52.220;20.978;2022-07-24T09:21:17;20.40;99.90
17571;DHT22;8903;52.220;20.978;2022-07-24T09:23:45;20.50;99.90
17571;DHT22;8903;52.220;20.978;2022-07-24T09:26:13;20.40;99.90
17571;DHT22;8903;52.220;20.978;2022-07-24T09:28:50;20.30;99.90
17571;DHT22;8903;52.220;20.978;2022-07-24T09:31:17;20.30;99.90
17571;DHT22;8903;52.220;20.978;2022-07-24T09:33:44;20.20;99.90
17571;DHT22;8903;52.220;20.978;2022-07-24T09:36:11;20.30;99.90
17571;DHT22;8903;52.220;20.978;2022-07-24T09:38:40;20.30;99.90
17571;DHT22;8903;52.220;20.978;2022-07-24T09:41:10;20.30;99.90
17571;DHT22;8903;52.220;20.978;2022-07-24T09:43:37;20.30;99.90
17571;DHT22;8903;52.220;20.978;2022-07-24T09:46:05;20.20;99.90
17571;DHT22;8903;52.220;20.978;2022-07-24T09:48:32;20.20;99.90
17571;DHT22;8903;52.220;20.978;2022-07-24T09:51:00;20.10;99.90
17571;DHT22;8903;52.220;20.978;2022-07-24T09:53:28;20.00;99.90
17571;DHT22;8903;52.220;20.978;2022-07-24T09:55:57;20.00;99.90
17571;DHT22;8903;52.220;20.978;2022-07-24T09:58:24;20.10;99.90
17571;DHT22;8903;52.220;20.978;2022-07-24T10:00:51;20.20;99.90
17571;DHT22;8903;52.220;20.978;2022-07-24T10:03:20;20.30;99.90
17571;DHT22;8903;52.220;20.978;2022-07-24T10:05:50;20.60;99.90
17571;DHT22;8903;52.220;20.978;2022-07-24T10:08:19;20.70;99.90
17571;DHT22;8903;52.220;20.978;2022-07-24T10:10:47;20.70;99.90
17571;DHT22;8903;52.220;20.978;2022-07-24T10:13:16;20.60;99.90
17571;DHT22;8903;52.220;20.978;2022-07-24T10:15:47;20.40;99.90
17571;DHT22;8903;52.220;20.978;2022-07-24T10:18:16;20.00;99.90
17571;DHT22;8903;52.220;20.978;2022-07-24T10:20:45;19.70;99.90
17571;DHT22;8903;52.220;20.978;2022-07-24T10:26:01;20.10;99.90
17571;DHT22;8903;52.220;20.978;2022-07-24T10:28:36;20.50;99.90
17571;DHT22;8903;52.220;20.978;2022-07-24T10:31:03;20.80;99.90
17571;DHT22;8903;52.220;20.978;2022-07-24T10:33:30;20.70;99.90
17571;DHT22;8903;52.220;20.978;2022-07-24T10:35:58;20.70;99.90
17571;DHT22;8903;52.220;20.978;2022-07-24T10:38:29;20.50;99.90
17571;DHT22;8903;52.220;20.978;2022-07-24T10:40:59;20.50;99.90
17571;DHT22;8903;52.220;20.978;2022-07-24T10:43:28;20.40;99.90
17571;DHT22;8903;52.220;20.978;2022-07-24T10:46:11;20.40;99.90
17571;DHT22;8903;52.220;20.978;2022-07-24T10:48:39;20.50;99.90
17571;DHT22;8903;52.220;20.978;2022-07-24T10:51:10;20.70;99.90
17571;DHT22;8903;52.220;20.978;2022-07-24T10:53:44;20.80;99.90
17571;DHT22;8903;52.220;20.978;2022-07-24T10:56:15;20.60;99.90
17571;DHT22;8903;52.220;20.978;2022-07-24T10:58:50;20.50;99.90
17571;DHT22;8903;52.220;20.978;2022-07-24T11:01:28;20.60;99.90
17571;DHT22;8903;52.220;20.978;2022-07-24T11:03:54;20.70;99.90
17571;DHT22;8903;52.220;20.978;2022-07-24T11:06:37;20.80;99.90
17571;DHT22;8903;52.220;20.978;2022-07-24T11:09:04;21.10;99.90
17571;DHT22;8903;52.220;20.978;2022-07-24T11:11:31;21.40;99.90
17571;DHT22;8903;52.220;20.978;2022-07-24T11:13:57;21.60;99.90
17571;DHT22;8903;52.220;20.978;2022-07-24T11:16:29;21.80;99.90
17571;DHT22;8903;52.220;20.978;2022-07-24T11:21:42;21.80;99.90
17571;DHT22;8903;52.220;20.978;2022-07-24T11:24:15;21.80;99.90
17571;DHT22;8903;52.220;20.978;2022-07-24T11:26:45;22.00;99.90
17571;DHT22;8903;52.220;20.978;2022-07-24T11:29:12;22.50;99.90
17571;DHT22;8903;52.220;20.978;2022-07-24T11:31:41;22.30;99.90
17571;DHT22;8903;52.220;20.978;2022-07-24T11:34:09;22.00;99.90
17571;DHT22;8903;52.220;20.978;2022-07-24T11:36:36;22.00;99.90
17571;DHT22;8903;52.220;20.978;2022-07-24T11:39:03;22.10;99.90
17571;DHT22;8903;52.220;20.978;2022-07-24T11:41:41;21.20;99.90
17571;DHT22;8903;52.220;20.978;2022-07-24T11:44:09;22.30;99.90
17571;DHT22;8903;52.220;20.978;2022-07-24T11:46:37;22.50;99.90
17571;DHT22;8903;52.220;20.978;2022-07-24T11:49:06;22.60;99.90
17571;DHT22;8903;52.220;20.978;2022-07-24T11:51:39;22.90;99.90
17571;DHT22;8903;52.220;20.978;2022-07-24T11:54:06;22.90;99.90
17571;DHT22;8903;52.220;20.978;2022-07-24T11:56:33;22.30;99.90
17571;DHT22;8903;52.220;20.978;2022-07-24T11:59:00;21.80;99.90
17571;DHT22;8903;52.220;20.978;2022-07-24T12:01:26;21.50;99.90
17571;DHT22;8903;52.220;20.978;2022-07-24T12:03:54;21.10;99.90
17571;DHT22;8903;52.220;20.978;2022-07-24T12:06:24;21.00;99.90
17571;DHT22;8903;52.220;20.978;2022-07-24T12:08:51;20.90;99.90
17571;DHT22;8903;52.220;20.978;2022-07-24T12:11:19;20.90;99.90
17571;DHT22;8903;52.220;20.978;2022-07-24T12:13:47;21.00;99.90
17571;DHT22;8903;52.220;20.978;2022-07-24T12:16:14;21.50;99.90
17571;DHT22;8903;52.220;20.978;2022-07-24T12:18:48;21.90;99.90
17571;DHT22;8903;52.220;20.978;2022-07-24T12:21:15;22.00;99.90
17571;DHT22;8903;52.220;20.978;2022-07-24T12:23:45;22.20;99.90
17571;DHT22;8903;52.220;20.978;2022-07-24T12:26:12;22.10;99.90
17571;DHT22;8903;52.220;20.978;2022-07-24T12:28:39;22.20;99.90
17571;DHT22;8903;52.220;20.978;2022-07-24T12:31:06;22.00;99.90
17571;DHT22;8903;52.220;20.978;2022-07-24T12:33:33;21.70;99.90
17571;DHT22;8903;52.220;20.978;2022-07-24T12:36:01;21.40;99.90
17571;DHT22;8903;52.220;20.978;2022-07-24T12:38:34;21.20;99.90
17571;DHT22;8903;52.220;20.978;2022-07-24T12:41:04;21.00;99.90
17571;DHT22;8903;52.220;20.978;2022-07-24T12:43:31;20.90;99.90
17571;DHT22;8903;52.220;20.978;2022-07-24T12:46:04;20.60;99.90
17571;DHT22;8903;52.220;20.978;2022-07-24T12:48:31;20.50;99.90
17571;DHT22;8903;52.220;20.978;2022-07-24T12:50:59;20.60;99.90
17571;DHT22;8903;52.220;20.978;2022-07-24T12:53:26;20.60;99.90
17571;DHT22;8903;52.220;20.978;2022-07-24T12:56:00;20.60;99.90
17571;DHT22;8903;52.220;20.978;2022-07-24T12:58:28;20.60;99.90
17571;DHT22;8903;52.220;20.978;2022-07-24T13:00:55;20.60;99.90
17571;DHT22;8903;52.220;20.978;2022-07-24T13:03:23;20.80;99.90
17571;DHT22;8903;52.220;20.978;2022-07-24T13:05:53;21.00;99.90
17571;DHT22;8903;52.220;20.978;2022-07-24T13:08:21;21.00;99.90
17571;DHT22;8903;52.220;20.978;2022-07-24T13:10:47;20.90;99.90
17571;DHT22;8903;52.220;20.978;2022-07-24T13:13:14;20.80;99.90
17571;DHT22;8903;52.220;20.978;2022-07-24T13:15:42;21.50;99.90
17571;DHT22;8903;52.220;20.978;2022-07-24T13:18:09;24.10;99.90
17571;DHT22;8903;52.220;20.978;2022-07-24T13:20:35;25.70;99.90
17571;DHT22;8903;52.220;20.978;2022-07-24T13:23:02;26.50;99.90
17571;DHT22;8903;52.220;20.978;2022-07-24T13:25:29;25.60;99.90
17571;DHT22;8903;52.220;20.978;2022-07-24T13:27:55;24.00;99.90
17571;DHT22;8903;52.220;20.978;2022-07-24T13:30:22;23.50;99.90
17571;DHT22;8903;52.220;20.978;2022-07-24T13:32:50;23.60;99.90
17571;DHT22;8903;52.220;20.978;2022-07-24T13:35:17;23.60;99.90
17571;DHT22;8903;52.220;20.978;2022-07-24T13:37:43;23.80;99.90
17571;DHT22;8903;52.220;20.978;2022-07-24T13:40:10;24.50;99.90
17571;DHT22;8903;52.220;20.978;2022-07-24T13:42:39;24.30;99.90
17571;DHT22;8903;52.220;20.978;2022-07-24T13:45:06;24.40;99.90
17571;DHT22;8903;52.220;20.978;2022-07-24T13:47:34;25.10;99.90
17571;DHT22;8903;52.220;20.978;2022-07-24T13:50:02;25.50;99.90
17571;DHT22;8903;52.220;20.978;2022-07-24T13:52:29;25.80;99.90
17571;DHT22;8903;52.220;20.978;2022-07-24T13:54:55;25.10;99.90
17571;DHT22;8903;52.220;20.978;2022-07-24T13:57:22;24.70;99.90
17571;DHT22;8903;52.220;20.978;2022-07-24T13:59:48;24.60;99.90
17571;DHT22;8903;52.220;20.978;2022-07-24T14:02:15;25.00;99.90
17571;DHT22;8903;52.220;20.978;2022-07-24T14:04:42;25.10;99.90
17571;DHT22;8903;52.220;20.978;2022-07-24T14:07:10;25.10;99.90
17571;DHT22;8903;52.220;20.978;2022-07-24T14:09:38;25.10;99.90
17571;DHT22;8903;52.220;20.978;2022-07-24T14:12:04;25.40;99.90
17571;DHT22;8903;52.220;20.978;2022-07-24T14:14:31;25.90;99.90
17571;DHT22;8903;52.220;20.978;2022-07-24T14:16:58;25.70;99.90
17571;DHT22;8903;52.220;20.978;2022-07-24T14:19:25;25.70;99.90
17571;DHT22;8903;52.220;20.978;2022-07-24T14:21:52;25.90;99.90
17571;DHT22;8903;52.220;20.978;2022-07-24T14:24:20;25.90;99.90
17571;DHT22;8903;52.220;20.978;2022-07-24T14:26:47;26.00;99.90
17571;DHT22;8903;52.220;20.978;2022-07-24T14:29:14;26.60;99.90
17571;DHT22;8903;52.220;20.978;2022-07-24T14:31:40;26.30;99.90
17571;DHT22;8903;52.220;20.978;2022-07-24T14:34:07;26.10;99.90
17571;DHT22;8903;52.220;20.978;2022-07-24T14:36:34;26.10;99.90
17571;DHT22;8903;52.220;20.978;2022-07-24T14:39:00;25.80;99.90
17571;DHT22;8903;52.220;20.978;2022-07-24T14:41:28;25.80;99.90
17571;DHT22;8903;52.220;20.978;2022-07-24T14:43:55;25.90;99.90
17571;DHT22;8903;52.220;20.978;2022-07-24T14:46:21;25.80;99.90
17571;DHT22;8903;52.220;20.978;2022-07-24T14:48:48;26.40;99.90
17571;DHT22;8903;52.220;20.978;2022-07-24T14:51:15;26.90;99.90
17571;DHT22;8903;52.220;20.978;2022-07-24T14:53:41;26.80;99.90
17571;DHT22;8903;52.220;20.978;2022-07-24T14:56:08;26.90;99.90
17571;DHT22;8903;52.220;20.978;2022-07-24T14:58:36;26.80;99.90
17571;DHT22;8903;52.220;20.978;2022-07-24T15:01:03;26.90;99.90
17571;DHT22;8903;52.220;20.978;2022-07-24T15:03:30;27.00;99.90
17571;DHT22;8903;52.220;20.978;2022-07-24T15:05:56;27.10;99.90
17571;DHT22;8903;52.220;20.978;2022-07-24T15:08:23;27.00;99.90
17571;DHT22;8903;52.220;20.978;2022-07-24T15:10:50;26.70;99.90
17571;DHT22;8903;52.220;20.978;2022-07-24T15:13:16;26.30;99.90
17571;DHT22;8903;52.220;20.978;2022-07-24T15:15:45;25.90;99.90
17571;DHT22;8903;52.220;20.978;2022-07-24T15:18:12;26.40;99.90
17571;DHT22;8903;52.220;20.978;2022-07-24T15:20:39;27.00;99.90
17571;DHT22;8903;52.220;20.978;2022-07-24T15:23:05;27.30;99.90
17571;DHT22;8903;52.220;20.978;2022-07-24T15:25:32;27.60;99.90
17571;DHT22;8903;52.220;20.978;2022-07-24T15:27:59;26.50;99.90
17571;DHT22;8903;52.220;20.978;2022-07-24T15:30:26;25.60;99.90
17571;DHT22;8903;52.220;20.978;2022-07-24T15:32:54;24.90;99.90
17571;DHT22;8903;52.220;20.978;2022-07-24T15:35:20;24.30;99.90
17571;DHT22;8903;52.220;20.978;2022-07-24T15:37:47;23.90;99.90